Reynolds, North Dakota
Current Conditions -  °F | °C
As of 1:53 PM on Saturday 25 Oct 2014 (Local Time) from KGFK Reporting Station
Few Clouds Few Clouds  
Wind Chill: 59°   Ceiling: Unl
Heat Index: 59°   Visibility: 10mi
Dew Point: 25°   Wind: 17mph
Humidity: 27%   Direction: 310°NW
Pressure: 30.06"   Gusts: 23mph
Location:  47.67°N, 97.11°W
Report Text: KGFK 251853Z 31015G20KT 10SM FEW250 15/M04 A3006 RMK AO2 PK WND 32026/1821 SLP183 T01501039
Loading
Personal Weather Stations






























Interactive Weather Map
Tropical Storm Tracking
New forecast layout! Learn more

10-Day Weather Forecast

Advertisements
Track Severe Weather on mobile